sensor_id;sensor_type;location;lat;lon;timestamp;temperature;humidity
12726;DHT22;6427;49.754;6.106;2023-08-20T00:01:31;20.50;99.90
12726;DHT22;6427;49.754;6.106;2023-08-20T00:04:00;20.40;99.90
12726;DHT22;6427;49.754;6.106;2023-08-20T00:06:27;20.40;99.90
12726;DHT22;6427;49.754;6.106;2023-08-20T00:08:55;20.40;99.90
12726;DHT22;6427;49.754;6.106;2023-08-20T00:11:23;20.30;99.90
12726;DHT22;6427;49.754;6.106;2023-08-20T00:13:51;20.30;99.90
12726;DHT22;6427;49.754;6.106;2023-08-20T00:16:18;20.30;99.90
12726;DHT22;6427;49.754;6.106;2023-08-20T00:18:46;20.30;99.90
12726;DHT22;6427;49.754;6.106;2023-08-20T00:21:14;20.30;99.90
12726;DHT22;6427;49.754;6.106;2023-08-20T00:23:42;20.20;99.90
12726;DHT22;6427;49.754;6.106;2023-08-20T00:26:10;20.20;99.90
12726;DHT22;6427;49.754;6.106;2023-08-20T00:28:38;20.20;99.90
12726;DHT22;6427;49.754;6.106;2023-08-20T00:31:07;20.20;99.90
12726;DHT22;6427;49.754;6.106;2023-08-20T00:33:35;20.10;99.90
12726;DHT22;6427;49.754;6.106;2023-08-20T00:36:03;20.30;99.90
12726;DHT22;6427;49.754;6.106;2023-08-20T00:38:32;20.30;99.90
12726;DHT22;6427;49.754;6.106;2023-08-20T00:40:59;20.30;99.90
12726;DHT22;6427;49.754;6.106;2023-08-20T00:43:27;20.30;99.90
12726;DHT22;6427;49.754;6.106;2023-08-20T00:45:55;20.20;99.90
12726;DHT22;6427;49.754;6.106;2023-08-20T00:48:23;20.10;99.90
12726;DHT22;6427;49.754;6.106;2023-08-20T00:50:50;20.10;99.90
12726;DHT22;6427;49.754;6.106;2023-08-20T00:53:18;20.10;99.90
12726;DHT22;6427;49.754;6.106;2023-08-20T00:55:46;20.30;99.90
12726;DHT22;6427;49.754;6.106;2023-08-20T00:58:13;20.30;99.90
12726;DHT22;6427;49.754;6.106;2023-08-20T01:00:41;20.20;99.90
12726;DHT22;6427;49.754;6.106;2023-08-20T01:03:08;20.40;99.90
12726;DHT22;6427;49.754;6.106;2023-08-20T01:05:38;20.30;99.90
12726;DHT22;6427;49.754;6.106;2023-08-20T01:08:28;20.20;99.90
12726;DHT22;6427;49.754;6.106;2023-08-20T01:11:03;20.10;99.90
12726;DHT22;6427;49.754;6.106;2023-08-20T01:13:29;20.10;99.90
12726;DHT22;6427;49.754;6.106;2023-08-20T01:15:57;19.90;99.90
12726;DHT22;6427;49.754;6.106;2023-08-20T01:18:25;19.90;99.90
12726;DHT22;6427;49.754;6.106;2023-08-20T01:20:55;19.90;99.90
12726;DHT22;6427;49.754;6.106;2023-08-20T01:23:54;20.10;99.90
12726;DHT22;6427;49.754;6.106;2023-08-20T01:26:25;20.00;99.90
12726;DHT22;6427;49.754;6.106;2023-08-20T01:28:49;19.90;99.90
12726;DHT22;6427;49.754;6.106;2023-08-20T01:31:16;19.90;99.90
12726;DHT22;6427;49.754;6.106;2023-08-20T01:33:45;19.80;99.90
12726;DHT22;6427;49.754;6.106;2023-08-20T01:36:12;19.70;99.90
12726;DHT22;6427;49.754;6.106;2023-08-20T01:38:41;19.90;99.90
12726;DHT22;6427;49.754;6.106;2023-08-20T01:41:09;19.90;99.90
12726;DHT22;6427;49.754;6.106;2023-08-20T01:43:37;19.90;99.90
12726;DHT22;6427;49.754;6.106;2023-08-20T01:46:06;20.00;99.90
12726;DHT22;6427;49.754;6.106;2023-08-20T01:48:33;20.00;99.90
12726;DHT22;6427;49.754;6.106;2023-08-20T01:51:00;19.90;99.90
12726;DHT22;6427;49.754;6.106;2023-08-20T01:53:28;19.80;99.90
12726;DHT22;6427;49.754;6.106;2023-08-20T01:55:56;19.70;99.90
12726;DHT22;6427;49.754;6.106;2023-08-20T01:58:23;19.60;99.90
12726;DHT22;6427;49.754;6.106;2023-08-20T02:00:51;19.60;99.90
12726;DHT22;6427;49.754;6.106;2023-08-20T02:03:19;19.80;99.90
12726;DHT22;6427;49.754;6.106;2023-08-20T02:05:47;19.80;99.90
12726;DHT22;6427;49.754;6.106;2023-08-20T02:08:15;19.80;99.90
12726;DHT22;6427;49.754;6.106;2023-08-20T02:10:43;19.70;99.90
12726;DHT22;6427;49.754;6.106;2023-08-20T02:13:11;19.70;99.90
12726;DHT22;6427;49.754;6.106;2023-08-20T02:15:39;19.90;99.90
12726;DHT22;6427;49.754;6.106;2023-08-20T02:18:08;19.90;99.90
12726;DHT22;6427;49.754;6.106;2023-08-20T02:20:35;19.90;99.90
12726;DHT22;6427;49.754;6.106;2023-08-20T02:23:04;20.00;99.90
12726;DHT22;6427;49.754;6.106;2023-08-20T02:25:31;20.00;99.90
12726;DHT22;6427;49.754;6.106;2023-08-20T02:27:59;19.90;99.90
12726;DHT22;6427;49.754;6.106;2023-08-20T02:30:26;19.90;99.90
12726;DHT22;6427;49.754;6.106;2023-08-20T02:32:54;20.00;99.90
12726;DHT22;6427;49.754;6.106;2023-08-20T02:35:22;19.90;99.90
12726;DHT22;6427;49.754;6.106;2023-08-20T02:37:50;20.00;99.90
12726;DHT22;6427;49.754;6.106;2023-08-20T02:40:18;19.90;99.90
12726;DHT22;6427;49.754;6.106;2023-08-20T02:42:45;20.00;99.90
12726;DHT22;6427;49.754;6.106;2023-08-20T02:45:13;20.00;99.90
12726;DHT22;6427;49.754;6.106;2023-08-20T02:47:41;20.00;99.90
12726;DHT22;6427;49.754;6.106;2023-08-20T02:50:08;19.90;99.90
12726;DHT22;6427;49.754;6.106;2023-08-20T02:52:36;19.90;99.90
12726;DHT22;6427;49.754;6.106;2023-08-20T02:55:03;19.80;99.90
12726;DHT22;6427;49.754;6.106;2023-08-20T02:57:33;19.90;99.90
12726;DHT22;6427;49.754;6.106;2023-08-20T03:00:02;20.00;99.90
12726;DHT22;6427;49.754;6.106;2023-08-20T03:02:29;20.00;99.90
12726;DHT22;6427;49.754;6.106;2023-08-20T03:04:58;20.20;99.90
12726;DHT22;6427;49.754;6.106;2023-08-20T03:07:25;20.20;99.90
12726;DHT22;6427;49.754;6.106;2023-08-20T03:09:53;20.10;99.90
12726;DHT22;6427;49.754;6.106;2023-08-20T03:12:21;20.30;99.90
12726;DHT22;6427;49.754;6.106;2023-08-20T03:14:48;20.20;99.90
12726;DHT22;6427;49.754;6.106;2023-08-20T03:17:16;20.10;99.90
12726;DHT22;6427;49.754;6.106;2023-08-20T03:19:54;19.90;99.90
12726;DHT22;6427;49.754;6.106;2023-08-20T03:22:20;19.90;99.90
12726;DHT22;6427;49.754;6.106;2023-08-20T03:24:48;19.90;99.90
12726;DHT22;6427;49.754;6.106;2023-08-20T03:27:16;19.80;99.90
12726;DHT22;6427;49.754;6.106;2023-08-20T03:29:44;19.80;99.90
12726;DHT22;6427;49.754;6.106;2023-08-20T03:32:11;19.80;99.90
12726;DHT22;6427;49.754;6.106;2023-08-20T03:34:39;19.80;99.90
12726;DHT22;6427;49.754;6.106;2023-08-20T03:37:07;19.80;99.90
12726;DHT22;6427;49.754;6.106;2023-08-20T03:39:35;19.80;99.90
12726;DHT22;6427;49.754;6.106;2023-08-20T03:42:03;19.70;99.90
12726;DHT22;6427;49.754;6.106;2023-08-20T03:44:31;19.70;99.90
12726;DHT22;6427;49.754;6.106;2023-08-20T03:46:58;19.70;99.90
12726;DHT22;6427;49.754;6.106;2023-08-20T03:49:27;19.70;99.90
12726;DHT22;6427;49.754;6.106;2023-08-20T03:51:55;19.90;99.90
12726;DHT22;6427;49.754;6.106;2023-08-20T03:54:22;19.80;99.90
12726;DHT22;6427;49.754;6.106;2023-08-20T03:56:50;19.80;99.90
12726;DHT22;6427;49.754;6.106;2023-08-20T03:59:18;19.80;99.90
12726;DHT22;6427;49.754;6.106;2023-08-20T04:01:45;19.70;99.90
12726;DHT22;6427;49.754;6.106;2023-08-20T04:04:14;19.60;99.90
12726;DHT22;6427;49.754;6.106;2023-08-20T04:06:42;19.60;99.90
12726;DHT22;6427;49.754;6.106;2023-08-20T04:09:10;19.60;99.90
12726;DHT22;6427;49.754;6.106;2023-08-20T04:11:38;19.50;99.90
12726;DHT22;6427;49.754;6.106;2023-08-20T04:14:06;19.50;99.90
12726;DHT22;6427;49.754;6.106;2023-08-20T04:16:33;19.50;99.90
12726;DHT22;6427;49.754;6.106;2023-08-20T04:19:01;19.50;99.90
12726;DHT22;6427;49.754;6.106;2023-08-20T04:21:28;19.50;99.90
12726;DHT22;6427;49.754;6.106;2023-08-20T04:23:56;19.50;99.90
12726;DHT22;6427;49.754;6.106;2023-08-20T04:26:23;19.50;99.90
12726;DHT22;6427;49.754;6.106;2023-08-20T04:28:51;19.50;99.90
12726;DHT22;6427;49.754;6.106;2023-08-20T04:31:19;19.40;99.90
12726;DHT22;6427;49.754;6.106;2023-08-20T04:33:46;19.40;99.90
12726;DHT22;6427;49.754;6.106;2023-08-20T04:36:14;19.40;99.90
12726;DHT22;6427;49.754;6.106;2023-08-20T04:38:41;19.40;99.90
12726;DHT22;6427;49.754;6.106;2023-08-20T04:41:10;19.30;99.90
12726;DHT22;6427;49.754;6.106;2023-08-20T04:43:38;19.30;99.90
12726;DHT22;6427;49.754;6.106;2023-08-20T04:46:06;19.30;99.90
12726;DHT22;6427;49.754;6.106;2023-08-20T04:48:34;19.50;99.90
12726;DHT22;6427;49.754;6.106;2023-08-20T04:51:03;19.40;99.90
12726;DHT22;6427;49.754;6.106;2023-08-20T04:53:30;19.40;99.90
12726;DHT22;6427;49.754;6.106;2023-08-20T04:55:58;19.40;99.90
12726;DHT22;6427;49.754;6.106;2023-08-20T04:58:25;19.40;99.90
12726;DHT22;6427;49.754;6.106;2023-08-20T05:00:53;19.60;99.90
12726;DHT22;6427;49.754;6.106;2023-08-20T05:03:20;19.50;99.90
12726;DHT22;6427;49.754;6.106;2023-08-20T05:05:51;19.50;99.90
12726;DHT22;6427;49.754;6.106;2023-08-20T05:08:16;19.40;99.90
12726;DHT22;6427;49.754;6.106;2023-08-20T05:10:43;19.40;99.90
12726;DHT22;6427;49.754;6.106;2023-08-20T05:13:11;19.30;99.90
12726;DHT22;6427;49.754;6.106;2023-08-20T05:15:40;19.40;99.90
12726;DHT22;6427;49.754;6.106;2023-08-20T05:18:08;19.30;99.90
12726;DHT22;6427;49.754;6.106;2023-08-20T05:20:36;19.30;99.90
12726;DHT22;6427;49.754;6.106;2023-08-20T05:23:04;19.20;99.90
12726;DHT22;6427;49.754;6.106;2023-08-20T05:25:32;19.30;99.90
12726;DHT22;6427;49.754;6.106;2023-08-20T05:27:59;19.20;99.90
12726;DHT22;6427;49.754;6.106;2023-08-20T05:30:27;19.20;99.90
12726;DHT22;6427;49.754;6.106;2023-08-20T05:32:54;19.20;99.90
12726;DHT22;6427;49.754;6.106;2023-08-20T05:35:22;19.20;99.90
12726;DHT22;6427;49.754;6.106;2023-08-20T05:37:49;19.20;99.90
12726;DHT22;6427;49.754;6.106;2023-08-20T05:40:18;19.40;99.90
12726;DHT22;6427;49.754;6.106;2023-08-20T05:42:45;19.40;99.90
12726;DHT22;6427;49.754;6.106;2023-08-20T05:45:13;19.30;99.90
12726;DHT22;6427;49.754;6.106;2023-08-20T05:47:41;19.30;99.90
12726;DHT22;6427;49.754;6.106;2023-08-20T05:50:08;19.30;99.90
12726;DHT22;6427;49.754;6.106;2023-08-20T05:52:36;19.50;99.90
12726;DHT22;6427;49.754;6.106;2023-08-20T05:55:04;19.50;99.90
12726;DHT22;6427;49.754;6.106;2023-08-20T05:57:31;19.50;99.90
12726;DHT22;6427;49.754;6.106;2023-08-20T06:00:00;19.50;99.90
12726;DHT22;6427;49.754;6.106;2023-08-20T06:02:27;19.50;99.90
12726;DHT22;6427;49.754;6.106;2023-08-20T06:04:55;19.50;99.90
12726;DHT22;6427;49.754;6.106;2023-08-20T06:07:22;19.50;99.90
12726;DHT22;6427;49.754;6.106;2023-08-20T06:09:50;19.50;99.90
12726;DHT22;6427;49.754;6.106;2023-08-20T06:12:18;19.60;99.90
12726;DHT22;6427;49.754;6.106;2023-08-20T06:14:45;19.60;99.90
12726;DHT22;6427;49.754;6.106;2023-08-20T06:17:13;19.70;99.90
12726;DHT22;6427;49.754;6.106;2023-08-20T06:19:40;19.70;99.90
12726;DHT22;6427;49.754;6.106;2023-08-20T06:22:08;19.80;99.90
12726;DHT22;6427;49.754;6.106;2023-08-20T06:24:35;19.80;99.90
12726;DHT22;6427;49.754;6.106;2023-08-20T06:27:03;19.90;99.90
12726;DHT22;6427;49.754;6.106;2023-08-20T06:29:31;19.90;99.90
12726;DHT22;6427;49.754;6.106;2023-08-20T06:31:58;20.00;99.90
12726;DHT22;6427;49.754;6.106;2023-08-20T06:34:27;20.00;99.90
12726;DHT22;6427;49.754;6.106;2023-08-20T06:36:54;20.00;99.90
12726;DHT22;6427;49.754;6.106;2023-08-20T06:39:22;20.10;99.90
12726;DHT22;6427;49.754;6.106;2023-08-20T06:41:49;20.10;99.90
12726;DHT22;6427;49.754;6.106;2023-08-20T06:44:17;20.20;99.90
12726;DHT22;6427;49.754;6.106;2023-08-20T06:46:45;20.30;99.90
12726;DHT22;6427;49.754;6.106;2023-08-20T06:49:12;20.30;99.90
12726;DHT22;6427;49.754;6.106;2023-08-20T06:51:40;20.40;99.90
12726;DHT22;6427;49.754;6.106;2023-08-20T06:54:07;20.40;99.90
12726;DHT22;6427;49.754;6.106;2023-08-20T06:56:35;20.50;99.90
12726;DHT22;6427;49.754;6.106;2023-08-20T06:59:03;20.60;99.90
12726;DHT22;6427;49.754;6.106;2023-08-20T07:01:31;20.60;99.90
12726;DHT22;6427;49.754;6.106;2023-08-20T07:03:59;20.70;99.90
12726;DHT22;6427;49.754;6.106;2023-08-20T07:06:26;20.80;99.90
12726;DHT22;6427;49.754;6.106;2023-08-20T07:08:55;20.90;99.90
12726;DHT22;6427;49.754;6.106;2023-08-20T07:11:22;20.90;99.90
12726;DHT22;6427;49.754;6.106;2023-08-20T07:13:50;21.00;99.90
12726;DHT22;6427;49.754;6.106;2023-08-20T07:16:17;21.10;99.90
12726;DHT22;6427;49.754;6.106;2023-08-20T07:18:46;21.20;99.90
12726;DHT22;6427;49.754;6.106;2023-08-20T07:21:14;21.40;99.90
12726;DHT22;6427;49.754;6.106;2023-08-20T07:23:42;21.40;99.90
12726;DHT22;6427;49.754;6.106;2023-08-20T07:26:10;21.50;99.90
12726;DHT22;6427;49.754;6.106;2023-08-20T07:28:37;21.60;99.90
12726;DHT22;6427;49.754;6.106;2023-08-20T07:31:29;21.70;99.90
12726;DHT22;6427;49.754;6.106;2023-08-20T07:33:57;21.80;99.90
12726;DHT22;6427;49.754;6.106;2023-08-20T07:36:24;21.80;99.90
12726;DHT22;6427;49.754;6.106;2023-08-20T07:38:52;21.90;99.90
12726;DHT22;6427;49.754;6.106;2023-08-20T07:41:19;22.20;99.90
12726;DHT22;6427;49.754;6.106;2023-08-20T07:43:47;22.30;99.90
12726;DHT22;6427;49.754;6.106;2023-08-20T07:46:15;22.30;99.90
12726;DHT22;6427;49.754;6.106;2023-08-20T07:48:42;22.60;99.90
12726;DHT22;6427;49.754;6.106;2023-08-20T07:51:11;22.70;99.90
12726;DHT22;6427;49.754;6.106;2023-08-20T07:53:39;22.70;99.90
12726;DHT22;6427;49.754;6.106;2023-08-20T07:56:06;22.70;99.90
12726;DHT22;6427;49.754;6.106;2023-08-20T07:58:34;22.80;99.90
12726;DHT22;6427;49.754;6.106;2023-08-20T08:01:02;22.80;99.90
12726;DHT22;6427;49.754;6.106;2023-08-20T08:03:29;22.90;99.90
12726;DHT22;6427;49.754;6.106;2023-08-20T08:05:57;23.00;99.90
12726;DHT22;6427;49.754;6.106;2023-08-20T08:08:24;23.00;99.90
12726;DHT22;6427;49.754;6.106;2023-08-20T08:10:52;23.10;99.90
12726;DHT22;6427;49.754;6.106;2023-08-20T08:13:20;23.20;99.90
12726;DHT22;6427;49.754;6.106;2023-08-20T08:15:47;23.20;99.90
12726;DHT22;6427;49.754;6.106;2023-08-20T08:18:15;23.30;99.90
12726;DHT22;6427;49.754;6.106;2023-08-20T08:20:42;23.30;99.90
12726;DHT22;6427;49.754;6.106;2023-08-20T08:23:10;23.50;99.90
12726;DHT22;6427;49.754;6.106;2023-08-20T08:25:37;23.50;99.90
12726;DHT22;6427;49.754;6.106;2023-08-20T08:28:05;23.60;99.90
12726;DHT22;6427;49.754;6.106;2023-08-20T08:30:33;23.60;99.90
12726;DHT22;6427;49.754;6.106;2023-08-20T08:33:00;23.70;99.90
12726;DHT22;6427;49.754;6.106;2023-08-20T08:35:28;23.80;99.90
12726;DHT22;6427;49.754;6.106;2023-08-20T08:37:55;23.90;99.90
12726;DHT22;6427;49.754;6.106;2023-08-20T08:40:24;24.00;99.90
12726;DHT22;6427;49.754;6.106;2023-08-20T08:42:52;24.10;99.90
12726;DHT22;6427;49.754;6.106;2023-08-20T08:45:18;24.20;99.90
12726;DHT22;6427;49.754;6.106;2023-08-20T08:47:46;24.30;99.90
12726;DHT22;6427;49.754;6.106;2023-08-20T08:50:13;24.40;99.90
12726;DHT22;6427;49.754;6.106;2023-08-20T08:52:41;24.50;99.90
12726;DHT22;6427;49.754;6.106;2023-08-20T08:55:09;24.50;99.90
12726;DHT22;6427;49.754;6.106;2023-08-20T08:57:36;24.60;99.90
12726;DHT22;6427;49.754;6.106;2023-08-20T09:00:04;24.70;99.90
12726;DHT22;6427;49.754;6.106;2023-08-20T09:02:32;25.00;99.90
12726;DHT22;6427;49.754;6.106;2023-08-20T09:04:59;25.10;99.90
12726;DHT22;6427;49.754;6.106;2023-08-20T09:07:27;25.10;99.90
12726;DHT22;6427;49.754;6.106;2023-08-20T09:09:57;25.10;99.90
12726;DHT22;6427;49.754;6.106;2023-08-20T09:12:22;25.20;99.90
12726;DHT22;6427;49.754;6.106;2023-08-20T09:14:50;25.20;99.90
12726;DHT22;6427;49.754;6.106;2023-08-20T09:17:17;25.30;99.90
12726;DHT22;6427;49.754;6.106;2023-08-20T09:19:45;25.30;99.90
12726;DHT22;6427;49.754;6.106;2023-08-20T09:22:13;25.50;99.90
12726;DHT22;6427;49.754;6.106;2023-08-20T09:24:44;25.50;99.90
12726;DHT22;6427;49.754;6.106;2023-08-20T09:27:14;25.60;99.90
12726;DHT22;6427;49.754;6.106;2023-08-20T09:29:45;25.60;99.90
12726;DHT22;6427;49.754;6.106;2023-08-20T09:32:18;25.70;99.90
12726;DHT22;6427;49.754;6.106;2023-08-20T09:34:45;25.70;99.90
12726;DHT22;6427;49.754;6.106;2023-08-20T09:37:13;25.80;99.90
12726;DHT22;6427;49.754;6.106;2023-08-20T09:39:41;25.90;99.90
12726;DHT22;6427;49.754;6.106;2023-08-20T09:42:10;26.00;99.90
12726;DHT22;6427;49.754;6.106;2023-08-20T09:44:42;26.00;99.90
12726;DHT22;6427;49.754;6.106;2023-08-20T09:47:11;26.10;99.90
12726;DHT22;6427;49.754;6.106;2023-08-20T09:49:44;26.10;99.90
12726;DHT22;6427;49.754;6.106;2023-08-20T09:52:12;26.40;99.90
12726;DHT22;6427;49.754;6.106;2023-08-20T09:54:50;26.40;99.90
12726;DHT22;6427;49.754;6.106;2023-08-20T09:57:23;26.50;99.90
12726;DHT22;6427;49.754;6.106;2023-08-20T09:59:47;26.50;99.90
12726;DHT22;6427;49.754;6.106;2023-08-20T10:02:14;26.60;99.50
12726;DHT22;6427;49.754;6.106;2023-08-20T10:04:42;26.60;98.40
12726;DHT22;6427;49.754;6.106;2023-08-20T10:07:11;26.70;96.50
12726;DHT22;6427;49.754;6.106;2023-08-20T10:09:38;26.70;96.50
12726;DHT22;6427;49.754;6.106;2023-08-20T10:12:06;26.80;95.40
12726;DHT22;6427;49.754;6.106;2023-08-20T10:14:33;26.80;94.70
12726;DHT22;6427;49.754;6.106;2023-08-20T10:17:05;26.90;94.60
12726;DHT22;6427;49.754;6.106;2023-08-20T10:19:28;27.00;94.70
12726;DHT22;6427;49.754;6.106;2023-08-20T10:21:57;27.10;94.40
12726;DHT22;6427;49.754;6.106;2023-08-20T10:24:24;27.00;94.40
12726;DHT22;6427;49.754;6.106;2023-08-20T10:27:10;27.10;94.90
12726;DHT22;6427;49.754;6.106;2023-08-20T10:29:36;27.40;95.20
12726;DHT22;6427;49.754;6.106;2023-08-20T10:32:08;27.50;94.90
12726;DHT22;6427;49.754;6.106;2023-08-20T10:34:35;27.50;94.90
12726;DHT22;6427;49.754;6.106;2023-08-20T10:37:13;27.60;94.70
12726;DHT22;6427;49.754;6.106;2023-08-20T10:39:41;27.60;94.30
12726;DHT22;6427;49.754;6.106;2023-08-20T10:45:05;27.80;93.50
12726;DHT22;6427;49.754;6.106;2023-08-20T10:47:36;27.90;93.50
12726;DHT22;6427;49.754;6.106;2023-08-20T10:50:04;28.20;92.30
12726;DHT22;6427;49.754;6.106;2023-08-20T10:52:32;28.20;92.20
12726;DHT22;6427;49.754;6.106;2023-08-20T10:54:59;28.20;92.00
12726;DHT22;6427;49.754;6.106;2023-08-20T10:57:36;28.30;91.90
12726;DHT22;6427;49.754;6.106;2023-08-20T10:59:57;28.40;90.80
12726;DHT22;6427;49.754;6.106;2023-08-20T11:02:25;28.50;90.90
12726;DHT22;6427;49.754;6.106;2023-08-20T11:04:52;28.50;90.80
12726;DHT22;6427;49.754;6.106;2023-08-20T11:07:20;28.70;90.70
12726;DHT22;6427;49.754;6.106;2023-08-20T11:09:47;28.70;90.10
12726;DHT22;6427;49.754;6.106;2023-08-20T11:12:15;28.80;89.80
12726;DHT22;6427;49.754;6.106;2023-08-20T11:14:43;28.80;88.10
12726;DHT22;6427;49.754;6.106;2023-08-20T11:17:10;28.90;87.10
12726;DHT22;6427;49.754;6.106;2023-08-20T11:19:38;29.00;86.60
12726;DHT22;6427;49.754;6.106;2023-08-20T11:22:05;29.10;86.30
12726;DHT22;6427;49.754;6.106;2023-08-20T11:24:33;29.20;86.30
12726;DHT22;6427;49.754;6.106;2023-08-20T11:27:01;29.30;85.10
12726;DHT22;6427;49.754;6.106;2023-08-20T11:29:28;29.40;85.60
12726;DHT22;6427;49.754;6.106;2023-08-20T11:31:56;29.50;85.80
12726;DHT22;6427;49.754;6.106;2023-08-20T11:34:24;29.80;86.20
12726;DHT22;6427;49.754;6.106;2023-08-20T11:36:51;29.90;84.50
12726;DHT22;6427;49.754;6.106;2023-08-20T11:39:19;29.90;83.90
12726;DHT22;6427;49.754;6.106;2023-08-20T11:41:46;29.90;83.50
12726;DHT22;6427;49.754;6.106;2023-08-20T11:44:20;29.90;82.90
12726;DHT22;6427;49.754;6.106;2023-08-20T11:46:48;29.90;83.20
12726;DHT22;6427;49.754;6.106;2023-08-20T11:49:15;29.90;83.80
12726;DHT22;6427;49.754;6.106;2023-08-20T11:51:47;29.90;83.90
12726;DHT22;6427;49.754;6.106;2023-08-20T11:54:16;30.00;84.10
12726;DHT22;6427;49.754;6.106;2023-08-20T11:56:50;30.00;83.90
12726;DHT22;6427;49.754;6.106;2023-08-20T11:59:14;30.00;83.40
12726;DHT22;6427;49.754;6.106;2023-08-20T12:01:41;30.10;82.20
12726;DHT22;6427;49.754;6.106;2023-08-20T12:04:09;30.10;80.70
12726;DHT22;6427;49.754;6.106;2023-08-20T12:06:37;30.10;79.80
12726;DHT22;6427;49.754;6.106;2023-08-20T12:09:22;30.10;79.40
12726;DHT22;6427;49.754;6.106;2023-08-20T12:11:50;30.10;79.20
12726;DHT22;6427;49.754;6.106;2023-08-20T12:14:18;30.30;75.30
12726;DHT22;6427;49.754;6.106;2023-08-20T12:16:46;30.20;74.70
12726;DHT22;6427;49.754;6.106;2023-08-20T12:19:13;30.30;76.10
12726;DHT22;6427;49.754;6.106;2023-08-20T12:21:41;30.30;75.60
12726;DHT22;6427;49.754;6.106;2023-08-20T12:24:09;30.40;76.00
12726;DHT22;6427;49.754;6.106;2023-08-20T12:26:36;30.50;74.70
12726;DHT22;6427;49.754;6.106;2023-08-20T12:29:04;30.40;73.70
12726;DHT22;6427;49.754;6.106;2023-08-20T12:31:34;30.50;74.20
12726;DHT22;6427;49.754;6.106;2023-08-20T12:34:02;30.50;73.30
12726;DHT22;6427;49.754;6.106;2023-08-20T12:36:30;30.60;73.30
12726;DHT22;6427;49.754;6.106;2023-08-20T12:38:58;30.60;73.20
12726;DHT22;6427;49.754;6.106;2023-08-20T12:41:25;30.60;73.10
12726;DHT22;6427;49.754;6.106;2023-08-20T12:43:53;30.70;73.60
12726;DHT22;6427;49.754;6.106;2023-08-20T12:46:20;30.80;72.80
12726;DHT22;6427;49.754;6.106;2023-08-20T12:48:48;30.80;73.30
12726;DHT22;6427;49.754;6.106;2023-08-20T12:51:16;31.00;72.90
12726;DHT22;6427;49.754;6.106;2023-08-20T12:53:43;31.10;72.00
12726;DHT22;6427;49.754;6.106;2023-08-20T12:56:12;31.10;71.50
12726;DHT22;6427;49.754;6.106;2023-08-20T12:58:40;31.10;70.90
12726;DHT22;6427;49.754;6.106;2023-08-20T13:01:08;31.00;71.60
12726;DHT22;6427;49.754;6.106;2023-08-20T13:03:38;31.00;71.60
12726;DHT22;6427;49.754;6.106;2023-08-20T13:06:07;31.00;69.90
12726;DHT22;6427;49.754;6.106;2023-08-20T13:08:34;31.00;70.20
12726;DHT22;6427;49.754;6.106;2023-08-20T13:11:02;31.00;70.50
12726;DHT22;6427;49.754;6.106;2023-08-20T13:13:31;31.20;69.10
12726;DHT22;6427;49.754;6.106;2023-08-20T13:15:58;31.10;68.90
12726;DHT22;6427;49.754;6.106;2023-08-20T13:18:26;31.10;67.70
12726;DHT22;6427;49.754;6.106;2023-08-20T13:20:53;31.30;66.80
12726;DHT22;6427;49.754;6.106;2023-08-20T13:23:21;31.30;67.10
12726;DHT22;6427;49.754;6.106;2023-08-20T13:25:50;31.30;66.90
12726;DHT22;6427;49.754;6.106;2023-08-20T13:28:19;31.30;67.90
12726;DHT22;6427;49.754;6.106;2023-08-20T13:30:46;31.30;67.10
12726;DHT22;6427;49.754;6.106;2023-08-20T13:33:14;31.30;66.70
12726;DHT22;6427;49.754;6.106;2023-08-20T13:35:43;31.30;66.40
12726;DHT22;6427;49.754;6.106;2023-08-20T13:38:12;31.20;66.50
12726;DHT22;6427;49.754;6.106;2023-08-20T13:40:39;31.20;65.70
12726;DHT22;6427;49.754;6.106;2023-08-20T13:43:07;31.20;66.10
12726;DHT22;6427;49.754;6.106;2023-08-20T13:45:35;31.30;66.10
12726;DHT22;6427;49.754;6.106;2023-08-20T13:48:02;31.40;66.50
12726;DHT22;6427;49.754;6.106;2023-08-20T13:50:30;31.40;66.50
12726;DHT22;6427;49.754;6.106;2023-08-20T13:52:57;31.50;66.40
12726;DHT22;6427;49.754;6.106;2023-08-20T13:55:25;31.50;65.70
12726;DHT22;6427;49.754;6.106;2023-08-20T13:57:53;31.60;65.30
12726;DHT22;6427;49.754;6.106;2023-08-20T14:00:20;31.60;65.00
12726;DHT22;6427;49.754;6.106;2023-08-20T14:02:48;31.60;65.20
12726;DHT22;6427;49.754;6.106;2023-08-20T14:05:15;31.70;65.00
12726;DHT22;6427;49.754;6.106;2023-08-20T14:07:43;31.70;65.40
12726;DHT22;6427;49.754;6.106;2023-08-20T14:10:11;31.80;65.60
12726;DHT22;6427;49.754;6.106;2023-08-20T14:12:38;32.00;65.00
12726;DHT22;6427;49.754;6.106;2023-08-20T14:15:06;32.20;64.10
12726;DHT22;6427;49.754;6.106;2023-08-20T14:17:34;32.40;61.90
12726;DHT22;6427;49.754;6.106;2023-08-20T14:20:02;32.30;61.60
12726;DHT22;6427;49.754;6.106;2023-08-20T14:22:30;32.30;61.60
12726;DHT22;6427;49.754;6.106;2023-08-20T14:24:58;32.20;62.20
12726;DHT22;6427;49.754;6.106;2023-08-20T14:27:25;32.20;62.50
12726;DHT22;6427;49.754;6.106;2023-08-20T14:29:53;32.20;62.70
12726;DHT22;6427;49.754;6.106;2023-08-20T14:32:20;32.20;62.40
12726;DHT22;6427;49.754;6.106;2023-08-20T14:34:48;32.30;62.30
12726;DHT22;6427;49.754;6.106;2023-08-20T14:37:17;32.50;62.90
12726;DHT22;6427;49.754;6.106;2023-08-20T14:39:44;32.50;62.80
12726;DHT22;6427;49.754;6.106;2023-08-20T14:42:12;32.60;62.70
12726;DHT22;6427;49.754;6.106;2023-08-20T14:44:39;32.60;61.20
12726;DHT22;6427;49.754;6.106;2023-08-20T14:47:08;32.60;60.50
12726;DHT22;6427;49.754;6.106;2023-08-20T14:49:35;32.60;60.50
12726;DHT22;6427;49.754;6.106;2023-08-20T14:52:04;32.70;60.60
12726;DHT22;6427;49.754;6.106;2023-08-20T14:54:31;32.70;60.60
12726;DHT22;6427;49.754;6.106;2023-08-20T14:57:00;32.80;62.40
12726;DHT22;6427;49.754;6.106;2023-08-20T14:59:28;32.90;62.30
12726;DHT22;6427;49.754;6.106;2023-08-20T15:01:56;32.90;62.30
12726;DHT22;6427;49.754;6.106;2023-08-20T15:04:23;33.00;62.20
12726;DHT22;6427;49.754;6.106;2023-08-20T15:06:51;33.10;61.50
12726;DHT22;6427;49.754;6.106;2023-08-20T15:09:18;33.20;61.20
12726;DHT22;6427;49.754;6.106;2023-08-20T15:11:46;33.30;60.20
12726;DHT22;6427;49.754;6.106;2023-08-20T15:14:14;33.30;59.30
12726;DHT22;6427;49.754;6.106;2023-08-20T15:16:42;33.30;59.20
12726;DHT22;6427;49.754;6.106;2023-08-20T15:19:09;33.40;60.10
12726;DHT22;6427;49.754;6.106;2023-08-20T15:21:37;33.60;60.10
12726;DHT22;6427;49.754;6.106;2023-08-20T15:24:05;33.70;59.10
12726;DHT22;6427;49.754;6.106;2023-08-20T15:26:34;33.80;59.00
12726;DHT22;6427;49.754;6.106;2023-08-20T15:29:01;33.70;58.80
12726;DHT22;6427;49.754;6.106;2023-08-20T15:31:30;33.90;58.10
12726;DHT22;6427;49.754;6.106;2023-08-20T15:33:58;34.00;57.60
12726;DHT22;6427;49.754;6.106;2023-08-20T15:36:26;34.00;57.50
12726;DHT22;6427;49.754;6.106;2023-08-20T15:38:53;34.00;57.00
12726;DHT22;6427;49.754;6.106;2023-08-20T15:41:21;34.10;56.90
12726;DHT22;6427;49.754;6.106;2023-08-20T15:43:48;34.10;56.60
12726;DHT22;6427;49.754;6.106;2023-08-20T15:46:17;34.20;56.60
12726;DHT22;6427;49.754;6.106;2023-08-20T15:48:44;34.20;56.50
12726;DHT22;6427;49.754;6.106;2023-08-20T15:51:12;34.30;56.40
12726;DHT22;6427;49.754;6.106;2023-08-20T15:53:40;34.40;56.30